Time;durP1;ratioP1;P1;durP2;ratioP2;P2;SDS_P1;SDS_P2;PMS_P1;PMS_P2;Temp;Humidity;BMP_temperature;BMP_pressure;BME280_temperature;BME280_humidity;BME280_pressure;Samples;Min_cycle;Max_cycle;Signal;HPM_P1;HPM_P2
2020/12/03 00:00:43;;;;;;;94.65;33.28;;;;;;;4.74;98.83;100723.78;4147308;27;20094;-84
2020/12/03 00:03:16;;;;;;;99.13;29.45;;;;;;;4.78;98.52;100716.44;4134175;27;20081;-84
2020/12/03 00:05:43;;;;;;;104.25;33.30;;;;;;;4.74;98.83;100710.44;4074659;28;20062;-85
2020/12/03 00:08:10;;;;;;;103.38;34.75;;;;;;;4.76;98.77;100700.53;4136959;27;20446;-84
2020/12/03 00:10:36;;;;;;;92.88;31.58;;;;;;;4.82;98.79;100696.63;4063886;28;20150;-84
2020/12/03 00:13:23;;;;;;;102.03;32.90;;;;;;;4.76;98.57;100700.53;4074261;27;20094;-85
2020/12/03 00:15:54;;;;;;;93.75;32.50;;;;;;;4.77;98.78;100690.72;4157755;27;20488;-84
2020/12/03 00:18:20;;;;;;;100.80;32.58;;;;;;;4.77;98.94;100688.94;4064165;27;20054;-85
2020/12/03 00:20:46;;;;;;;104.03;33.92;;;;;;;4.79;98.93;100681.66;4064800;28;20051;-85
2020/12/03 00:23:12;;;;;;;99.85;35.28;;;;;;;4.81;98.45;100673.56;4077698;28;20065;-84
2020/12/03 00:25:37;;;;;;;102.53;34.28;;;;;;;4.78;98.83;100666.63;4083876;27;20069;-85
2020/12/03 00:28:02;;;;;;;108.15;35.85;;;;;;;4.77;98.81;100666.72;4067832;28;20058;-87
2020/12/03 00:30:33;;;;;;;95.68;33.20;;;;;;;4.76;98.52;100652.56;4077287;28;20053;-86
2020/12/03 00:33:05;;;;;;;97.68;32.20;;;;;;;4.77;98.96;100640.94;4067298;28;20059;-86
2020/12/03 00:35:31;;;;;;;87.65;31.92;;;;;;;4.76;98.63;100633.88;4079711;28;20053;-86
2020/12/03 00:37:56;;;;;;;101.25;34.70;;;;;;;4.75;98.41;100632.16;4068262;28;20050;-87
2020/12/03 00:40:22;;;;;;;101.45;32.10;;;;;;;4.74;98.77;100630.44;4054592;28;20127;-85
2020/12/03 00:42:55;;;;;;;92.97;32.50;;;;;;;4.78;98.24;100629.28;4059465;28;20050;-85
2020/12/03 00:45:20;;;;;;;91.80;31.58;;;;;;;4.75;98.59;100621.50;4053815;28;20054;-84
2020/12/03 00:47:51;;;;;;;99.65;33.30;;;;;;;4.73;98.57;100608.28;4063845;28;20485;-86
2020/12/03 00:50:17;;;;;;;107.68;36.65;;;;;;;4.71;98.48;100614.66;4184733;27;20058;-85
2020/12/03 00:52:43;;;;;;;102.63;34.75;;;;;;;4.71;98.66;100604.00;4075943;27;20386;-84
2020/12/03 00:55:09;;;;;;;104.93;32.33;;;;;;;4.74;98.10;100598.47;4070061;28;20065;-86
2020/12/03 00:57:34;;;;;;;91.40;33.55;;;;;;;4.71;98.30;100596.00;4065101;27;20765;-84
2020/12/03 01:00:21;;;;;;;94.85;35.40;;;;;;;4.72;98.12;100598.56;4053143;28;20066;-87
2020/12/03 01:02:48;;;;;;;94.45;32.90;;;;;;;4.70;98.06;100597.81;4067049;28;20146;-84
2020/12/03 01:05:15;;;;;;;82.63;29.80;;;;;;;4.73;98.17;100591.44;4109063;27;20054;-85
2020/12/03 01:07:44;;;;;;;96.25;32.55;;;;;;;4.77;97.93;100584.94;4244225;27;20068;-85
2020/12/03 01:10:16;;;;;;;92.33;31.43;;;;;;;4.72;97.83;100579.06;4068812;28;20054;-84
2020/12/03 01:12:41;;;;;;;88.07;30.88;;;;;;;4.71;97.89;100572.00;4065499;28;20138;-84
2020/12/03 01:15:07;;;;;;;86.63;31.20;;;;;;;4.72;97.96;100566.56;4152769;27;20531;-86
2020/12/03 01:17:32;;;;;;;77.47;28.10;;;;;;;4.69;98.53;100565.94;4059288;28;20063;-85
2020/12/03 01:19:58;;;;;;;87.15;32.20;;;;;;;4.70;98.00;100570.31;4064789;28;20055;-85
2020/12/03 01:22:25;;;;;;;88.47;32.25;;;;;;;4.69;97.99;100564.13;4084077;28;20094;-86
2020/12/03 01:24:57;;;;;;;90.07;31.80;;;;;;;4.70;97.44;100549.00;4083925;27;20097;-86
2020/12/03 01:27:22;;;;;;;86.50;30.35;;;;;;;4.73;97.70;100556.78;4155614;27;20125;-85
2020/12/03 01:29:48;;;;;;;77.45;30.65;;;;;;;4.71;97.63;100543.56;4064920;28;20327;-85
2020/12/03 01:32:13;;;;;;;71.85;28.75;;;;;;;4.69;97.68;100539.28;4077512;28;20058;-86
2020/12/03 01:34:38;;;;;;;84.47;30.40;;;;;;;4.69;97.17;100541.94;4065220;28;20521;-86
2020/12/03 01:37:04;;;;;;;70.45;28.05;;;;;;;4.64;97.62;100536.06;4054773;28;20053;-85
2020/12/03 01:39:29;;;;;;;82.18;30.75;;;;;;;4.67;97.31;100541.22;4059366;28;20070;-86
2020/12/03 01:41:55;;;;;;;76.32;31.55;;;;;;;4.63;97.31;100535.22;4067568;28;20114;-86
2020/12/03 01:44:47;;;;;;;83.05;30.98;;;;;;;4.63;97.46;100539.72;4190215;27;20158;-84
2020/12/03 01:47:25;;;;;;;69.03;29.60;;;;;;;4.61;97.64;100530.94;4260297;27;20055;-86
2020/12/03 01:49:50;;;;;;;78.50;29.23;;;;;;;4.56;97.52;100537.47;4065455;28;20396;-85
2020/12/03 01:52:16;;;;;;;72.82;27.00;;;;;;;4.60;97.99;100531.94;4054979;28;20043;-85
2020/12/03 01:54:41;;;;;;;79.53;29.73;;;;;;;4.56;97.76;100537.47;4054450;28;20086;-85
2020/12/03 01:57:09;;;;;;;82.05;30.45;;;;;;;4.57;97.73;100528.50;4054255;28;20066;-85
2020/12/03 01:59:44;;;;;;;69.30;27.98;;;;;;;4.57;97.71;100520.50;4148515;27;20097;-85
2020/12/03 02:02:12;;;;;;;70.13;27.40;;;;;;;4.58;97.73;100518.72;4124157;27;20074;-85
2020/12/03 02:04:37;;;;;;;69.28;28.73;;;;;;;4.58;97.12;100513.38;4050949;28;20055;-84
2020/12/03 02:07:08;;;;;;;74.57;29.10;;;;;;;4.58;97.59;100526.72;4054798;28;20058;-85
2020/12/03 02:09:37;;;;;;;73.88;30.30;;;;;;;4.60;97.60;100522.13;4150548;27;20066;-87
2020/12/03 02:12:02;;;;;;;75.97;30.42;;;;;;;4.64;97.04;100512.94;4166197;27;20068;-84
2020/12/03 02:14:28;;;;;;;69.18;27.42;;;;;;;4.60;97.21;100513.28;4063840;28;20050;-85
2020/12/03 02:16:54;;;;;;;63.83;28.60;;;;;;;4.56;97.19;100505.50;4221117;27;20066;-85
2020/12/03 02:19:28;;;;;;;67.03;27.52;;;;;;;4.60;97.20;100500.78;4183326;27;20315;-86
2020/12/03 02:22:02;;;;;;;59.83;24.95;;;;;;;4.56;97.44;100502.81;4168378;27;20050;-84
2020/12/03 02:24:28;;;;;;;60.05;25.45;;;;;;;4.57;97.14;100499.19;4138164;27;20509;-85
2020/12/03 02:26:54;;;;;;;59.45;26.45;;;;;;;4.58;96.98;100492.06;4062243;28;20054;-85
2020/12/03 02:29:20;;;;;;;67.13;27.80;;;;;;;4.53;97.10;100484.38;4084734;27;20450;-85
2020/12/03 02:31:46;;;;;;;64.75;26.83;;;;;;;4.55;96.98;100478.94;4086907;28;20338;-88
2020/12/03 02:34:11;;;;;;;64.95;26.17;;;;;;;4.53;96.83;100463.06;4063400;28;20054;-86
2020/12/03 02:36:36;;;;;;;66.28;26.85;;;;;;;4.54;96.86;100466.56;4064933;28;20057;-86
2020/12/03 02:39:02;;;;;;;63.08;25.63;;;;;;;4.51;96.78;100464.97;4066230;27;20097;-85
2020/12/03 02:41:28;;;;;;;62.28;25.77;;;;;;;4.52;97.06;100469.34;4063644;28;20063;-84
2020/12/03 02:43:53;;;;;;;52.47;23.90;;;;;;;4.53;96.56;100452.41;4063719;28;20066;-84
2020/12/03 02:46:21;;;;;;;54.03;24.42;;;;;;;4.53;96.59;100449.75;4063556;27;20137;-85
2020/12/03 02:48:46;;;;;;;58.03;23.67;;;;;;;4.54;96.22;100448.75;4104497;27;20551;-87
2020/12/03 02:51:15;;;;;;;53.83;24.83;;;;;;;4.54;96.06;100443.44;4063592;27;20046;-83
2020/12/03 02:53:41;;;;;;;69.03;24.02;;;;;;;4.55;95.93;100445.16;4133627;27;20075;-84
2020/12/03 02:56:06;;;;;;;45.05;20.73;;;;;;;4.55;96.06;100447.81;4076510;27;20133;-86
2020/12/03 02:58:33;;;;;;;42.67;20.88;;;;;;;4.58;95.95;100444.09;4075630;28;20069;-86
2020/12/03 03:00:58;;;;;;;44.65;20.60;;;;;;;4.56;95.72;100441.53;4064654;28;20070;-86
2020/12/03 03:03:27;;;;;;;65.60;23.50;;;;;;;4.57;95.70;100440.53;4063909;27;20330;-85
2020/12/03 03:05:52;;;;;;;50.55;22.30;;;;;;;4.58;95.37;100425.44;4098971;27;20134;-86
2020/12/03 03:08:17;;;;;;;48.85;20.25;;;;;;;4.60;95.40;100419.97;4065610;28;20489;-85
2020/12/03 03:10:43;;;;;;;52.30;22.60;;;;;;;4.56;95.08;100414.88;4066854;35;20069;-85
2020/12/03 03:13:08;;;;;;;42.90;19.73;;;;;;;4.59;95.39;100415.59;4067958;35;20046;-86
2020/12/03 03:15:33;;;;;;;45.85;19.45;;;;;;;4.57;95.50;100411.22;4066777;35;20125;-86
2020/12/03 03:17:59;;;;;;;43.72;20.60;;;;;;;4.56;95.20;100404.22;4067939;35;20066;-87
2020/12/03 03:20:24;;;;;;;42.53;19.55;;;;;;;4.65;95.00;100404.50;4069143;35;20043;-86
2020/12/03 03:22:49;;;;;;;48.08;21.13;;;;;;;4.57;95.14;100395.22;4079161;35;20042;-86
2020/12/03 03:25:15;;;;;;;44.03;20.77;;;;;;;4.57;95.35;100400.56;4066020;35;20074;-85
2020/12/03 03:27:40;;;;;;;44.58;20.17;;;;;;;4.54;95.66;100384.78;4066148;35;20388;-85
2020/12/03 03:30:07;;;;;;;48.85;20.38;;;;;;;4.50;95.71;100380.63;4066126;35;20054;-86
2020/12/03 03:32:32;;;;;;;50.78;21.92;;;;;;;4.50;95.94;100375.31;4194002;27;20783;-86
2020/12/03 03:36:28;;;;;;;45.05;19.60;;;;;;;4.53;95.82;100368.91;5097494;27;20429;-87
2020/12/03 03:38:55;;;;;;;48.90;21.45;;;;;;;4.47;96.31;100362.19;5073683;28;20049;-86
2020/12/03 03:41:21;;;;;;;45.83;21.33;;;;;;;4.47;96.10;100362.19;5048972;28;20071;-85
2020/12/03 03:43:47;;;;;;;45.35;20.52;;;;;;;4.44;96.21;100351.75;5054166;28;20036;-86
2020/12/03 03:46:12;;;;;;;47.63;20.40;;;;;;;4.45;96.12;100348.16;5031265;28;20055;-86
2020/12/03 03:48:40;;;;;;;43.55;21.45;;;;;;;4.38;96.42;100346.88;5049312;28;20040;-87
2020/12/03 03:51:06;;;;;;;43.30;20.45;;;;;;;4.43;96.21;100339.41;5067619;28;20045;-86
2020/12/03 03:53:32;;;;;;;42.40;18.90;;;;;;;4.43;96.54;100344.75;5052508;28;20094;-86
2020/12/03 03:56:00;;;;;;;46.30;20.35;;;;;;;4.42;96.35;100344.84;5050857;28;20356;-85
2020/12/03 03:58:28;;;;;;;42.30;19.65;;;;;;;4.38;96.45;100352.22;5050037;28;20037;-87
2020/12/03 04:00:58;;;;;;;40.63;20.42;;;;;;;4.39;97.01;100343.25;5051219;28;20123;-87
2020/12/03 04:03:23;;;;;;;46.15;20.25;;;;;;;4.41;96.46;100351.97;5049018;28;20084;-86
2020/12/03 04:05:52;;;;;;;42.90;19.63;;;;;;;4.40;96.69;100347.59;5051193;28;20112;-87
2020/12/03 04:08:18;;;;;;;60.15;21.50;;;;;;;4.36;96.60;100340.81;5060146;28;20087;-86
2020/12/03 04:10:44;;;;;;;43.00;21.35;;;;;;;4.38;96.47;100336.22;5051121;28;20036;-86
2020/12/03 04:13:15;;;;;;;48.03;22.33;;;;;;;4.42;96.78;100326.19;5058158;28;20041;-87
2020/12/03 04:15:43;;;;;;;42.47;20.95;;;;;;;4.33;96.71;100320.56;5047533;28;20037;-86
2020/12/03 04:18:08;;;;;;;40.95;19.50;;;;;;;4.34;96.81;100313.41;5056954;28;20044;-85
2020/12/03 04:20:34;;;;;;;43.33;20.63;;;;;;;4.33;96.93;100311.72;5047286;28;20392;-89
2020/12/03 04:23:00;;;;;;;39.60;19.77;;;;;;;4.33;97.05;100301.06;5048783;28;20044;-86
2020/12/03 04:25:25;;;;;;;46.40;21.40;;;;;;;4.33;96.88;100293.09;5059121;28;20146;-86
2020/12/03 04:27:51;;;;;;;42.17;19.80;;;;;;;4.36;97.14;100295.53;5047562;28;20040;-86
2020/12/03 04:30:16;;;;;;;45.50;21.35;;;;;;;4.35;97.04;100296.47;5050003;28;21060;-86
2020/12/03 04:32:42;;;;;;;45.22;21.83;;;;;;;4.32;96.99;100291.38;5048980;28;20040;-86
2020/12/03 04:35:09;;;;;;;49.50;22.13;;;;;;;4.31;97.26;100287.84;5039645;28;20476;-87
2020/12/03 04:37:34;;;;;;;48.30;21.13;;;;;;;4.34;97.17;100276.13;5045228;28;20119;-86
2020/12/03 04:40:00;;;;;;;42.55;20.85;;;;;;;4.37;96.58;100266.09;5051452;28;20445;-87
2020/12/03 04:42:28;;;;;;;44.65;21.70;;;;;;;4.31;97.32;100268.34;5038320;28;20040;-87
2020/12/03 04:44:57;;;;;;;50.35;22.15;;;;;;;4.32;97.71;100270.06;5048232;28;20409;-88
2020/12/03 04:47:41;;;;;;;46.30;21.98;;;;;;;4.36;97.69;100264.38;5036349;28;20094;-88
2020/12/03 04:50:17;;;;;;;43.75;21.58;;;;;;;4.32;97.63;100254.91;5039684;28;20037;-87
2020/12/03 04:52:57;;;;;;;50.50;23.60;;;;;;;4.31;97.62;100247.03;5046184;28;20060;-89
2020/12/03 04:55:30;;;;;;;49.13;22.48;;;;;;;4.29;97.63;100238.31;5047358;28;20041;-87
2020/12/03 04:58:04;;;;;;;52.45;22.50;;;;;;;4.28;97.58;100244.59;5031727;28;20102;-87
2020/12/03 05:00:44;;;;;;;52.53;24.15;;;;;;;4.26;97.92;100235.88;5034180;28;20029;-87
2020/12/03 05:03:47;;;;;;;59.83;25.65;;;;;;;4.26;98.17;100234.06;5040135;28;20516;-87
2020/12/03 05:06:21;;;;;;;62.65;25.17;;;;;;;4.26;98.11;100230.53;5033367;28;20037;-87
2020/12/03 05:09:01;;;;;;;55.70;23.95;;;;;;;4.25;98.28;100220.84;5045662;28;20037;-86
2020/12/03 05:11:30;;;;;;;59.85;25.25;;;;;;;4.27;98.40;100210.91;5026860;28;20101;-86
2020/12/03 05:14:01;;;;;;;58.55;25.63;;;;;;;4.27;98.41;100229.56;5023830;28;20041;-87
2020/12/03 05:16:35;;;;;;;58.75;25.20;;;;;;;4.26;98.16;100219.88;5031325;28;20116;-87
2020/12/03 05:19:12;;;;;;;50.65;26.10;;;;;;;4.26;98.22;100217.22;5033189;28;20049;-89
2020/12/03 05:21:38;;;;;;;55.45;26.45;;;;;;;4.26;98.48;100209.25;5043086;28;20091;-89
2020/12/03 05:24:03;;;;;;;57.17;26.42;;;;;;;4.25;98.49;100205.69;5031298;28;20499;-88
2020/12/03 05:26:36;;;;;;;63.47;26.90;;;;;;;4.26;98.35;100198.59;5027712;28;20041;-87
2020/12/03 05:29:05;;;;;;;66.70;27.92;;;;;;;4.24;98.69;100205.81;5026810;28;20037;-87
2020/12/03 05:31:35;;;;;;;64.68;28.88;;;;;;;4.29;98.43;100198.34;5030228;28;20041;-87
2020/12/03 05:34:21;;;;;;;60.30;25.05;;;;;;;4.29;98.34;100199.19;5047936;28;20486;-86
2020/12/03 05:36:55;;;;;;;64.47;28.85;;;;;;;4.28;98.36;100188.66;5025266;28;20061;-88
2020/12/03 05:39:38;;;;;;;70.22;28.75;;;;;;;4.28;98.00;100186.81;5044425;28;20096;-86
2020/12/03 05:42:12;;;;;;;60.33;26.92;;;;;;;4.29;98.41;100183.22;5022479;28;20090;-87
2020/12/03 05:44:43;;;;;;;60.90;26.17;;;;;;;4.33;98.13;100183.84;5027943;28;20105;-88
2020/12/03 05:47:36;;;;;;;66.13;25.63;;;;;;;4.31;98.07;100177.78;5029974;28;20041;-85
2020/12/03 05:50:07;;;;;;;61.95;28.00;;;;;;;4.30;98.22;100173.41;5026536;28;20476;-84
2020/12/03 05:52:34;;;;;;;72.65;27.27;;;;;;;4.30;98.52;100168.06;5031995;28;20500;-87
2020/12/03 05:55:04;;;;;;;65.35;27.88;;;;;;;4.30;98.68;100160.06;5029364;28;20041;-88
2020/12/03 05:57:34;;;;;;;65.78;27.58;;;;;;;4.31;98.37;100164.44;5022235;28;20045;-87
2020/12/03 06:00:17;;;;;;;60.25;25.17;;;;;;;4.36;97.82;100157.81;5026701;28;20029;-89
2020/12/03 06:03:07;;;;;;;71.03;28.05;;;;;;;4.35;98.15;100144.63;5045805;28;20032;-87
2020/12/03 06:05:57;;;;;;;63.53;27.33;;;;;;;4.35;98.28;100150.78;5041981;28;20048;-87
2020/12/03 06:09:03;;;;;;;68.93;27.65;;;;;;;4.35;98.16;100142.78;5046432;28;20037;-87
2020/12/03 06:11:40;;;;;;;73.47;29.25;;;;;;;4.35;98.27;100144.63;5002641;28;20695;-88
2020/12/03 06:14:11;;;;;;;71.47;28.92;;;;;;;4.36;98.34;100135.66;4986262;28;20053;-88
2020/12/03 06:17:04;;;;;;;69.32;30.08;;;;;;;4.41;98.24;100136.16;5028244;28;20060;-88
2020/12/03 06:19:39;;;;;;;73.53;28.58;;;;;;;4.40;98.33;100131.78;5017752;28;20071;-87
2020/12/03 06:22:20;;;;;;;72.78;29.45;;;;;;;4.38;98.13;100118.59;5044317;28;20045;-87
2020/12/03 06:25:12;;;;;;;68.53;29.35;;;;;;;4.39;98.52;100114.13;5023534;28;20045;-87
2020/12/03 06:27:53;;;;;;;71.30;28.05;;;;;;;4.37;98.84;100105.38;5024795;28;20052;-88
2020/12/03 06:30:25;;;;;;;73.18;29.05;;;;;;;4.44;98.65;100106.63;5040159;28;20564;-88
2020/12/03 06:32:59;;;;;;;83.10;31.08;;;;;;;4.43;98.46;100104.94;5025034;28;20041;-88
2020/12/03 06:36:07;;;;;;;74.22;29.48;;;;;;;4.45;98.81;100087.00;5034591;28;20083;-87
2020/12/03 06:39:05;;;;;;;73.68;31.10;;;;;;;4.43;98.69;100091.63;5043793;28;20094;-88
2020/12/03 06:41:47;;;;;;;77.20;31.00;;;;;;;4.47;98.62;100071.75;5047703;28;20033;-88
2020/12/03 06:44:18;;;;;;;81.40;32.20;;;;;;;4.48;98.83;100069.94;5036223;28;20090;-88
2020/12/03 06:47:21;;;;;;;75.75;30.15;;;;;;;4.48;98.77;100070.78;5045092;28;20112;-87
2020/12/03 06:50:31;;;;;;;79.07;31.02;;;;;;;4.47;98.76;100070.91;5058987;28;20120;-88
2020/12/03 06:53:03;;;;;;;77.40;32.15;;;;;;;4.50;98.86;100065.34;5043293;28;20131;-91
2020/12/03 06:55:43;;;;;;;70.20;29.10;;;;;;;4.46;98.92;100064.75;5041713;28;20098;-86
2020/12/03 06:58:38;;;;;;;91.15;32.95;;;;;;;4.45;99.32;100063.03;5060840;28;20460;-89
2020/12/03 07:01:38;;;;;;;81.25;32.05;;;;;;;4.46;99.28;100067.41;5058875;28;20040;-87
2020/12/03 07:04:22;;;;;;;81.53;30.88;;;;;;;4.51;98.94;100067.88;5043812;28;20049;-89
2020/12/03 07:07:01;;;;;;;83.35;31.80;;;;;;;4.47;99.05;100063.75;5040969;28;20040;-88
2020/12/03 07:09:57;;;;;;;77.70;29.52;;;;;;;4.51;98.88;100065.22;5060703;28;20048;-88
2020/12/03 07:12:42;;;;;;;74.68;28.60;;;;;;;4.54;98.83;100065.00;5062405;28;20048;-87
2020/12/03 07:15:45;;;;;;;80.72;29.23;;;;;;;4.52;98.99;100072.25;5063455;28;20044;-87
2020/12/03 07:18:35;;;;;;;87.10;31.58;;;;;;;4.55;99.09;100061.38;5056676;28;20045;-87
2020/12/03 07:21:15;;;;;;;73.63;30.67;;;;;;;4.49;99.07;100059.19;5060421;28;20068;-88
2020/12/03 07:23:54;;;;;;;88.32;30.63;;;;;;;4.51;98.97;100056.38;5052606;28;20093;-88
2020/12/03 07:26:52;;;;;;;86.05;33.10;;;;;;;4.50;99.28;100047.53;5047049;28;20610;-89
2020/12/03 07:29:53;;;;;;;85.05;31.88;;;;;;;4.55;98.87;100045.38;5059473;28;20040;-89
2020/12/03 07:32:33;;;;;;;85.55;32.83;;;;;;;4.54;99.01;100037.50;5052640;28;20036;-89
2020/12/03 07:35:16;;;;;;;88.43;31.27;;;;;;;4.54;99.28;100025.00;5047107;28;20516;-89
2020/12/03 07:38:03;;;;;;;97.88;33.15;;;;;;;4.62;98.91;100034.25;5056016;28;20400;-89
2020/12/03 07:40:36;;;;;;;86.88;32.80;;;;;;;4.64;98.81;100024.28;5045791;28;20052;-89
2020/12/03 07:43:20;;;;;;;104.25;34.60;;;;;;;4.67;99.10;100018.75;5039800;28;20048;-89
2020/12/03 07:45:49;;;;;;;100.80;32.83;;;;;;;4.65;98.82;100023.34;5042036;28;20044;-88
2020/12/03 07:48:39;;;;;;;92.25;31.90;;;;;;;4.68;98.82;100018.63;5037101;28;20040;-89
2020/12/03 07:51:12;;;;;;;79.30;32.70;;;;;;;4.61;98.89;100014.75;5058169;28;20366;-88
2020/12/03 07:53:40;;;;;;;87.50;34.70;;;;;;;4.60;99.36;100009.53;5044731;28;20077;-87
2020/12/03 07:56:26;;;;;;;82.15;32.10;;;;;;;4.64;99.30;100002.97;5043190;28;20036;-89
2020/12/03 07:58:54;;;;;;;99.13;34.25;;;;;;;4.61;99.54;99996.09;5060794;28;20036;-88
2020/12/03 08:01:38;;;;;;;104.28;37.40;;;;;;;4.61;99.79;99993.41;5027479;28;20501;-88
2020/12/03 08:04:09;;;;;;;89.47;32.90;;;;;;;4.62;99.70;99989.75;5043701;28;20032;-90
2020/12/03 08:06:40;;;;;;;95.18;32.65;;;;;;;4.64;99.69;99986.97;5052350;28;20094;-90
2020/12/03 08:09:06;;;;;;;105.65;34.63;;;;;;;4.66;100.00;99983.22;5034889;28;20063;-90
2020/12/03 08:11:37;;;;;;;106.50;34.80;;;;;;;4.70;100.00;99979.38;5065712;28;20695;-89
2020/12/03 08:14:05;;;;;;;114.32;36.58;;;;;;;4.72;99.96;99981.91;5064316;28;20508;-90
2020/12/03 08:16:40;;;;;;;110.03;34.38;;;;;;;4.73;99.91;99983.63;5043828;28;20045;-89
2020/12/03 08:19:18;;;;;;;99.47;32.03;;;;;;;4.73;99.83;99978.28;5066262;28;20108;-87
2020/12/03 08:21:47;;;;;;;101.45;30.80;;;;;;;4.74;100.00;99971.97;5075166;28;20032;-90
2020/12/03 08:24:25;;;;;;;91.22;31.25;;;;;;;4.72;100.00;99977.41;5050747;28;20485;-87
2020/12/03 08:27:19;;;;;;;85.47;29.27;;;;;;;4.76;100.00;99969.22;5055335;28;20033;-89
2020/12/03 08:29:44;;;;;;;87.28;30.60;;;;;;;4.78;100.00;99970.75;5050529;28;20120;-89
2020/12/03 08:32:12;;;;;;;84.68;27.52;;;;;;;4.78;100.00;99959.25;5067973;28;20120;-91
2020/12/03 08:34:42;;;;;;;96.22;33.40;;;;;;;4.79;100.00;99960.97;5067813;28;20037;-89
2020/12/03 08:37:15;;;;;;;90.72;30.10;;;;;;;4.79;100.00;99956.47;5066062;28;20048;-90
2020/12/03 08:39:48;;;;;;;104.03;35.63;;;;;;;4.78;100.00;99956.59;5065745;28;20037;-89
2020/12/03 08:42:13;;;;;;;107.00;35.65;;;;;;;4.80;100.00;99951.97;5042225;28;20493;-88
2020/12/03 08:44:41;;;;;;;102.40;31.25;;;;;;;4.85;100.00;99955.16;5046286;28;20048;-88
2020/12/03 08:47:38;;;;;;;110.82;32.33;;;;;;;4.83;100.00;99949.94;5034370;28;20044;-89
2020/12/03 08:50:12;;;;;;;115.80;36.45;;;;;;;4.80;100.00;99947.50;5063997;28;20040;-89
2020/12/03 08:52:38;;;;;;;112.47;33.40;;;;;;;4.82;100.00;99934.91;5030661;28;20048;-90
2020/12/03 08:55:11;;;;;;;119.38;35.80;;;;;;;4.80;100.00;99939.50;5051704;28;20040;-90
2020/12/03 08:57:49;;;;;;;105.40;32.35;;;;;;;4.84;100.00;99935.63;5044448;28;20622;-89
2020/12/03 09:00:18;;;;;;;112.72;33.72;;;;;;;4.88;100.00;99939.72;5050210;28;20406;-89
2020/12/03 09:02:46;;;;;;;98.93;34.13;;;;;;;4.81;100.00;99927.84;5048948;28;20033;-88
2020/12/03 09:05:13;;;;;;;99.57;30.90;;;;;;;4.91;100.00;99930.66;5062442;28;20195;-87
2020/12/03 09:07:44;;;;;;;94.95;33.35;;;;;;;4.87;100.00;99932.72;5048850;28;20051;-85
2020/12/03 09:10:11;;;;;;;108.13;35.10;;;;;;;4.81;100.00;99927.84;5052211;28;20076;-88
2020/12/03 09:12:46;;;;;;;101.95;32.65;;;;;;;4.88;100.00;99922.91;5034596;28;20467;-89
2020/12/03 09:15:11;;;;;;;94.60;32.15;;;;;;;4.84;100.00;99919.63;5043605;28;20127;-87
2020/12/03 09:17:43;;;;;;;105.15;33.38;;;;;;;4.82;100.00;99915.41;5060208;28;20132;-88
2020/12/03 09:20:52;;;;;;;99.22;31.00;;;;;;;4.87;99.91;99922.06;5054811;28;20044;-86
2020/12/03 09:23:29;;;;;;;106.47;34.30;;;;;;;4.88;100.00;99910.41;5076355;28;20033;-87
2020/12/03 09:26:18;;;;;;;96.28;32.83;;;;;;;4.82;100.00;99907.41;5050801;28;20040;-87
2020/12/03 09:28:45;;;;;;;100.60;31.87;;;;;;;4.78;100.00;99901.44;5039316;28;20048;-87
2020/12/03 09:31:11;;;;;;;93.15;32.95;;;;;;;4.80;100.00;99896.00;5061086;28;20103;-87
2020/12/03 09:33:47;;;;;;;94.60;30.40;;;;;;;4.81;99.89;99874.53;5064273;28;20033;-90
2020/12/03 09:36:22;;;;;;;80.35;29.27;;;;;;;4.85;100.00;99865.31;5061362;28;20079;-87
2020/12/03 09:39:10;;;;;;;74.85;27.02;;;;;;;4.88;100.00;99859.75;5037356;28;20040;-84
2020/12/03 09:42:02;;;;;;;65.28;27.65;;;;;;;4.85;100.00;99854.66;5039575;28;20044;-87
2020/12/03 09:44:35;;;;;;;75.80;29.08;;;;;;;4.83;99.70;99843.28;5055604;28;20122;-87
2020/12/03 09:47:16;;;;;;;68.28;28.13;;;;;;;4.83;99.32;99832.63;5050697;28;20507;-88
2020/12/03 09:49:51;;;;;;;65.30;26.83;;;;;;;4.83;99.41;99837.97;5057860;28;20048;-87
2020/12/03 09:52:46;;;;;;;60.78;24.48;;;;;;;4.79;99.67;99831.19;5034993;28;20124;-84
2020/12/03 09:59:02;;;;;;;60.63;25.23;;;;;;;4.79;99.50;99804.50;5037409;28;20130;-85
2020/12/03 10:05:13;;;;;;;73.78;26.60;;;;;;;4.81;99.24;99789.22;5049931;28;20059;-86
2020/12/03 10:14:48;;;;;;;62.28;27.05;;;;;;;4.80;99.22;99776.91;4945624;28;20070;-88
2020/12/03 10:17:22;;;;;;;65.97;25.75;;;;;;;4.82;98.89;99772.28;4959366;28;20054;-87
2020/12/03 10:19:51;;;;;;;64.07;25.33;;;;;;;4.85;98.85;99774.69;5016057;28;20366;-86
2020/12/03 10:22:29;;;;;;;64.53;25.27;;;;;;;4.81;98.69;99767.91;5028532;28;20481;-88
2020/12/03 10:25:03;;;;;;;66.82;27.77;;;;;;;4.82;98.69;99753.59;5062274;28;20036;-85
2020/12/03 10:28:12;;;;;;;58.67;24.70;;;;;;;4.93;98.38;99758.03;5049480;28;20052;-87
2020/12/03 10:30:39;;;;;;;57.05;22.67;;;;;;;4.88;97.95;99753.09;5028735;28;20045;-86
2020/12/03 10:33:12;;;;;;;56.17;23.73;;;;;;;4.92;98.18;99745.72;5044250;28;20037;-85
2020/12/03 10:35:52;;;;;;;55.42;25.67;;;;;;;4.85;97.93;99736.53;5030898;28;20523;-87
2020/12/03 10:38:32;;;;;;;60.80;23.55;;;;;;;4.93;97.66;99739.38;5026134;28;20048;-87
2020/12/03 10:41:00;;;;;;;47.08;22.55;;;;;;;4.90;97.49;99719.16;5036910;28;20028;-86
2020/12/03 10:43:34;;;;;;;50.60;22.73;;;;;;;4.91;97.38;99718.19;5056108;28;20436;-86
2020/12/03 10:46:06;;;;;;;58.30;23.55;;;;;;;4.94;97.78;99713.59;5032278;28;20033;-88
2020/12/03 10:48:50;;;;;;;54.83;23.23;;;;;;;4.91;97.64;99704.84;5059632;28;20102;-86
2020/12/03 10:51:31;;;;;;;50.70;21.55;;;;;;;4.98;97.35;99694.53;5022866;28;20135;-86
2020/12/03 10:53:59;;;;;;;47.20;21.92;;;;;;;4.98;97.09;99699.03;5042682;28;20033;-85
2020/12/03 10:56:29;;;;;;;41.72;19.48;;;;;;;5.02;96.83;99693.31;5038468;28;20045;-87
2020/12/03 11:00:08;;;;;;;44.28;22.30;;;;;;;5.03;96.89;99689.63;5055656;28;20493;-86
2020/12/03 11:02:44;;;;;;;44.38;19.80;;;;;;;5.07;96.59;99693.75;5054923;28;20036;-87
2020/12/03 11:05:12;;;;;;;37.88;18.55;;;;;;;5.06;96.79;99677.88;5036136;28;20033;-85
2020/12/03 11:07:51;;;;;;;43.78;19.98;;;;;;;5.03;96.02;99686.13;5064008;28;20036;-85
2020/12/03 11:10:46;;;;;;;37.40;18.05;;;;;;;5.01;96.44;99675.59;5024559;28;20064;-85
2020/12/03 11:13:20;;;;;;;42.95;20.67;;;;;;;4.98;95.96;99673.19;5005525;28;20056;-86
2020/12/03 11:15:52;;;;;;;40.58;19.05;;;;;;;4.97;96.47;99666.16;5050084;28;20059;-86
2020/12/03 11:18:22;;;;;;;46.88;20.63;;;;;;;4.94;96.44;99665.59;5045855;28;20086;-86
2020/12/03 11:21:04;;;;;;;49.05;21.52;;;;;;;4.98;96.82;99672.34;5038433;28;20047;-86
2020/12/03 11:23:43;;;;;;;48.20;23.65;;;;;;;4.95;96.24;99661.94;5018103;28;20493;-88
2020/12/03 11:26:11;;;;;;;42.90;20.90;;;;;;;4.92;96.60;99657.72;5044083;28;20047;-86
2020/12/03 11:28:40;;;;;;;46.33;20.85;;;;;;;4.94;96.64;99638.94;5019665;28;20159;-87
2020/12/03 11:31:45;;;;;;;51.47;22.75;;;;;;;5.00;96.00;99633.06;5019395;28;20094;-88
2020/12/03 11:34:10;;;;;;;52.40;25.70;;;;;;;4.97;96.54;99626.16;5002983;28;20115;-85
2020/12/03 11:36:45;;;;;;;51.70;23.63;;;;;;;4.96;96.27;99613.81;5050671;28;20047;-86
2020/12/03 11:39:16;;;;;;;50.53;22.63;;;;;;;4.95;96.81;99619.25;5028288;28;20111;-86
2020/12/03 11:44:45;;;;;;;49.10;22.20;;;;;;;5.03;96.10;99611.47;5031905;28;20040;-88
2020/12/03 11:47:58;;;;;;;46.17;22.75;;;;;;;5.02;96.21;99599.97;5017701;28;20041;-86
2020/12/03 11:50:17;;;;;;;51.15;23.38;;;;;;;4.95;96.52;99589.94;5055657;28;20346;-88
2020/12/03 11:52:46;;;;;;;53.92;22.75;;;;;;;4.95;97.03;99579.25;5047969;28;20075;-86
2020/12/03 11:55:22;;;;;;;49.42;23.30;;;;;;;4.96;96.06;99584.50;5048915;28;20044;-88
2020/12/03 11:57:47;;;;;;;52.00;26.67;;;;;;;4.96;96.31;99573.84;5046553;28;20497;-89
2020/12/03 12:00:17;;;;;;;58.25;24.55;;;;;;;5.02;95.95;99569.75;5036075;28;20131;-86
2020/12/03 12:02:42;;;;;;;49.63;24.75;;;;;;;4.98;96.30;99566.53;5050585;28;20456;-87
2020/12/03 12:05:15;;;;;;;53.42;22.65;;;;;;;4.97;95.92;99564.84;5038927;28;20029;-86